Time;durP1;ratioP1;P1;durP2;ratioP2;P2;SDS_P1;SDS_P2;PMS_P1;PMS_P2;Temp;Humidity;BMP_temperature;BMP_pressure;BME280_temperature;BME280_humidity;BME280_pressure;Samples;Min_cycle;Max_cycle;Signal;HPM_P1;HPM_P2
2022/05/17 00:00:53;;;;;;;11.82;10.82;;;;;;;19.21;71.90;100674.84;5111493;27;20562;-66
2022/05/17 00:03:20;;;;;;;10.63;9.70;;;;;;;19.39;71.67;100693.47;5105666;28;20040;-66
2022/05/17 00:05:48;;;;;;;10.25;9.63;;;;;;;19.32;71.48;100670.50;5140511;27;20075;-66
2022/05/17 00:08:16;;;;;;;10.57;9.88;;;;;;;19.53;71.26;100699.78;5114138;28;20101;-66
2022/05/17 00:10:44;;;;;;;10.80;9.98;;;;;;;19.59;70.96;100697.59;5113171;28;20134;-66
2022/05/17 00:13:12;;;;;;;10.82;9.73;;;;;;;19.55;70.80;100683.25;5114677;28;20130;-66
2022/05/17 00:15:46;;;;;;;11.23;10.13;;;;;;;19.59;70.49;100680.59;5111767;27;20096;-66
2022/05/17 00:18:15;;;;;;;10.38;9.52;;;;;;;19.80;70.20;100703.38;5123645;27;20497;-66
2022/05/17 00:20:43;;;;;;;12.43;11.48;;;;;;;19.47;70.69;100678.47;5111460;28;20082;-66
2022/05/17 00:23:12;;;;;;;12.93;11.60;;;;;;;19.26;71.82;100689.66;5112876;28;20079;-66
2022/05/17 00:25:39;;;;;;;13.57;12.23;;;;;;;19.05;72.52;100683.88;5111258;28;20124;-66
2022/05/17 00:28:06;;;;;;;14.27;13.05;;;;;;;18.85;73.01;100673.25;5107809;28;20127;-66
2022/05/17 00:30:33;;;;;;;17.23;14.15;;;;;;;18.64;73.76;100668.22;5112188;28;20075;-67
2022/05/17 00:33:00;;;;;;;15.48;14.23;;;;;;;18.72;74.16;100682.72;5112867;27;20593;-66
2022/05/17 00:35:27;;;;;;;14.77;13.77;;;;;;;18.67;74.25;100673.22;5111211;28;20135;-67
2022/05/17 00:37:54;;;;;;;13.52;12.80;;;;;;;18.43;74.99;100644.59;5114105;28;20126;-65
2022/05/17 00:40:21;;;;;;;14.57;13.57;;;;;;;18.35;75.59;100626.44;5109049;28;20127;-66
2022/05/17 00:42:48;;;;;;;13.85;12.77;;;;;;;18.46;75.29;100660.88;5113569;27;20134;-67
2022/05/17 00:45:15;;;;;;;13.65;12.60;;;;;;;18.45;75.50;100657.22;5108867;28;20065;-66
2022/05/17 00:48:04;;;;;;;13.63;12.55;;;;;;;18.50;75.46;100644.09;5102433;28;20047;-67
2022/05/17 00:50:37;;;;;;;15.05;13.75;;;;;;;18.58;75.33;100663.06;5111146;28;20101;-64
2022/05/17 00:53:10;;;;;;;14.98;13.93;;;;;;;18.54;75.33;100633.78;5113620;28;20131;-66
2022/05/17 00:55:45;;;;;;;13.77;12.80;;;;;;;18.28;76.22;100613.97;5109545;28;20135;-66
2022/05/17 00:58:19;;;;;;;13.30;12.45;;;;;;;18.42;76.36;100645.72;5110186;27;20075;-66
2022/05/17 01:01:06;;;;;;;13.20;12.20;;;;;;;18.37;75.95;100645.91;5110429;28;20151;-68
2022/05/17 01:03:47;;;;;;;12.77;11.88;;;;;;;18.26;75.55;100593.69;5101903;28;20054;-67
2022/05/17 01:06:15;;;;;;;13.32;12.18;;;;;;;18.63;75.49;100651.56;5109593;28;20462;-67
2022/05/17 01:08:44;;;;;;;13.77;12.55;;;;;;;18.34;76.31;100626.78;5111406;27;20413;-64
2022/05/17 01:11:11;;;;;;;13.57;12.30;;;;;;;18.39;76.29;100627.47;5111647;27;20513;-66
2022/05/17 01:16:25;;;;;;;14.15;13.20;;;;;;;18.37;77.19;100634.59;5109732;27;20071;-65
2022/05/17 01:18:52;;;;;;;14.43;13.50;;;;;;;18.38;76.73;100633.41;5108227;28;20055;-66
2022/05/17 01:21:19;;;;;;;14.80;13.82;;;;;;;18.27;77.00;100590.50;5108360;28;20053;-65
2022/05/17 01:23:46;;;;;;;19.20;15.15;;;;;;;18.32;76.66;100609.28;5109178;28;20071;-66
2022/05/17 01:26:18;;;;;;;14.23;13.05;;;;;;;18.31;76.96;100596.34;5109402;28;20130;-65
2022/05/17 01:28:44;;;;;;;13.82;12.98;;;;;;;18.42;76.96;100625.94;5110560;28;20067;-65
2022/05/17 01:31:12;;;;;;;13.95;12.80;;;;;;;18.33;77.12;100627.94;5110231;28;20126;-65
2022/05/17 01:33:40;;;;;;;13.65;12.85;;;;;;;18.38;77.01;100636.25;5110831;28;20566;-66
2022/05/17 01:36:09;;;;;;;13.82;12.77;;;;;;;18.42;76.90;100637.25;5112404;28;20111;-65
2022/05/17 01:38:37;;;;;;;14.23;12.77;;;;;;;18.41;76.72;100618.63;5108542;28;20071;-65
2022/05/17 01:41:04;;;;;;;13.60;12.52;;;;;;;18.64;76.56;100633.44;5102420;28;20068;-65
2022/05/17 01:43:31;;;;;;;15.02;12.27;;;;;;;18.57;76.06;100611.31;5108764;28;20474;-67
2022/05/17 01:46:05;;;;;;;12.82;11.63;;;;;;;18.66;76.29;100614.94;5112412;28;20565;-66
2022/05/17 01:48:32;;;;;;;14.23;12.68;;;;;;;18.48;76.88;100611.31;5111838;28;20549;-66
2022/05/17 01:50:59;;;;;;;12.30;11.25;;;;;;;18.51;76.90;100601.34;5108364;28;20130;-65
2022/05/17 01:53:26;;;;;;;12.07;10.98;;;;;;;18.62;76.75;100619.63;5112738;28;20471;-66
2022/05/17 01:55:52;;;;;;;12.35;11.43;;;;;;;18.68;76.44;100614.63;5108181;28;20070;-66
2022/05/17 01:58:21;;;;;;;11.50;10.55;;;;;;;18.61;76.77;100605.81;5102459;28;20143;-67
2022/05/17 02:00:47;;;;;;;13.02;11.77;;;;;;;18.67;76.64;100610.16;5107576;28;20055;-66
2022/05/17 02:03:15;;;;;;;12.80;11.00;;;;;;;18.75;76.31;100617.00;5111609;28;20138;-66
2022/05/17 02:05:41;;;;;;;12.25;10.75;;;;;;;18.76;76.51;100610.16;5107888;28;20068;-66
2022/05/17 02:08:08;;;;;;;11.40;10.25;;;;;;;18.86;76.06;100626.78;5107875;28;20047;-67
2022/05/17 02:10:35;;;;;;;12.13;10.68;;;;;;;18.82;75.85;100589.03;5102333;28;20052;-66
2022/05/17 02:13:02;;;;;;;13.02;11.77;;;;;;;18.87;76.13;100603.84;5101841;28;20079;-66
2022/05/17 02:15:29;;;;;;;13.30;9.75;;;;;;;18.84;75.98;100598.84;5107405;28;20168;-65
2022/05/17 02:17:56;;;;;;;12.77;9.82;;;;;;;18.57;76.46;100557.59;5112287;27;20139;-66
2022/05/17 02:20:24;;;;;;;9.95;9.10;;;;;;;18.75;76.26;100591.53;5110943;27;20079;-67
2022/05/17 02:22:51;;;;;;;10.98;9.98;;;;;;;18.83;76.12;100587.84;5110921;28;20134;-66
2022/05/17 02:25:18;;;;;;;10.30;9.70;;;;;;;18.87;75.96;100600.16;5112227;28;20122;-66
2022/05/17 02:27:45;;;;;;;11.65;10.55;;;;;;;18.94;75.88;100609.00;5114686;28;20051;-67
2022/05/17 02:30:13;;;;;;;14.27;12.85;;;;;;;18.92;76.08;100600.81;5104139;28;20127;-67
2022/05/17 02:32:39;;;;;;;12.13;11.18;;;;;;;18.67;76.84;100596.00;5125136;27;20078;-66
2022/05/17 02:35:09;;;;;;;14.73;11.82;;;;;;;18.66;76.80;100609.28;5117651;27;20135;-66
2022/05/17 02:37:36;;;;;;;13.73;10.82;;;;;;;18.74;76.79;100599.19;5113775;28;20795;-66
2022/05/17 02:40:04;;;;;;;13.55;12.60;;;;;;;18.42;77.05;100558.06;5113905;28;20079;-66
2022/05/17 02:42:32;;;;;;;15.80;14.18;;;;;;;18.54;77.00;100600.66;5113351;28;20065;-65
2022/05/17 02:44:59;;;;;;;16.27;15.13;;;;;;;18.58;77.36;100600.84;5114418;28;20079;-66
2022/05/17 02:47:25;;;;;;;17.67;15.95;;;;;;;18.41;77.51;100585.53;5114336;28;20126;-66
2022/05/17 02:49:52;;;;;;;18.23;16.77;;;;;;;18.54;77.45;100611.16;5112639;27;20090;-65
2022/05/17 02:52:19;;;;;;;18.67;16.98;;;;;;;18.33;77.87;100585.53;5101282;28;20474;-66
2022/05/17 02:54:46;;;;;;;16.70;15.43;;;;;;;18.29;77.90;100573.22;5113247;28;20055;-64
2022/05/17 02:57:13;;;;;;;16.70;15.60;;;;;;;18.33;78.62;100586.38;5110403;28;20126;-65
2022/05/17 02:59:40;;;;;;;17.23;16.05;;;;;;;18.32;78.70;100610.13;5112658;28;20122;-65
2022/05/17 03:02:07;;;;;;;18.10;16.52;;;;;;;18.35;78.57;100600.16;5113242;28;20093;-65
2022/05/17 03:04:34;;;;;;;16.85;15.65;;;;;;;18.26;78.85;100590.88;5113269;28;20055;-65
2022/05/17 03:07:02;;;;;;;20.33;18.00;;;;;;;18.42;78.40;100603.31;5114498;28;20054;-64
2022/05/17 03:09:29;;;;;;;17.20;15.52;;;;;;;18.32;79.05;100607.31;5113385;28;20581;-64
2022/05/17 03:11:57;;;;;;;17.08;15.75;;;;;;;18.36;79.03;100610.28;5113456;27;20048;-65
2022/05/17 03:14:24;;;;;;;15.45;14.55;;;;;;;18.23;79.28;100589.53;5114244;28;20135;-65
2022/05/17 03:16:50;;;;;;;15.30;14.48;;;;;;;17.91;79.08;100528.63;5113603;28;20139;-65
2022/05/17 03:19:18;;;;;;;15.10;14.15;;;;;;;18.27;79.44;100596.16;5112365;28;20395;-65
2022/05/17 03:21:46;;;;;;;16.50;15.15;;;;;;;18.26;79.67;100599.34;5114027;28;20134;-66
2022/05/17 03:24:14;;;;;;;15.68;14.60;;;;;;;18.44;79.01;100612.31;5113813;28;20131;-65
2022/05/17 03:27:01;;;;;;;15.43;14.43;;;;;;;18.26;79.33;100583.22;5110626;28;20122;-64
2022/05/17 03:29:28;;;;;;;16.60;15.18;;;;;;;18.28;79.53;100597.00;5114905;28;20553;-66
2022/05/17 03:31:55;;;;;;;15.55;14.20;;;;;;;18.28;79.67;100594.16;5112923;28;20081;-66
2022/05/17 03:34:21;;;;;;;15.75;14.75;;;;;;;18.51;78.55;100601.34;5113522;28;20039;-65
2022/05/17 03:36:48;;;;;;;14.38;13.45;;;;;;;18.63;78.35;100595.84;5114050;28;20131;-65
2022/05/17 03:39:15;;;;;;;14.30;13.48;;;;;;;18.53;78.34;100581.19;5113609;28;20098;-65
2022/05/17 03:41:42;;;;;;;13.63;12.75;;;;;;;18.59;78.04;100569.38;5108726;28;20114;-66
2022/05/17 03:44:09;;;;;;;14.27;13.07;;;;;;;18.66;77.89;100592.31;5113876;28;20916;-66
2022/05/17 03:46:37;;;;;;;14.88;13.68;;;;;;;18.77;77.71;100580.69;5113316;27;20118;-66
2022/05/17 03:49:09;;;;;;;15.27;13.93;;;;;;;18.72;77.96;100595.84;5113723;28;20043;-66
2022/05/17 03:51:36;;;;;;;13.30;12.15;;;;;;;18.68;77.60;100581.50;5111499;28;20048;-66
2022/05/17 03:54:03;;;;;;;13.25;12.05;;;;;;;18.77;77.63;100586.34;5112247;28;20083;-65
2022/05/17 03:56:30;;;;;;;12.40;11.50;;;;;;;18.74;77.35;100592.72;5109626;28;20039;-65
2022/05/17 03:58:57;;;;;;;13.10;12.07;;;;;;;18.82;77.24;100611.66;5113309;28;20048;-66
2022/05/17 04:01:24;;;;;;;12.73;11.63;;;;;;;18.80;77.27;100605.50;5111747;28;20090;-67
2022/05/17 04:03:51;;;;;;;13.75;12.63;;;;;;;18.83;77.04;100600.00;5112598;28;20468;-67
2022/05/17 04:06:22;;;;;;;13.10;11.82;;;;;;;18.80;76.88;100589.34;5108128;27;20048;-65
2022/05/17 04:08:50;;;;;;;12.50;11.48;;;;;;;18.87;76.62;100600.16;5107567;28;20134;-65
2022/05/17 04:11:17;;;;;;;12.00;11.30;;;;;;;18.86;76.68;100595.66;5111149;27;20081;-65
2022/05/17 04:13:44;;;;;;;12.80;11.70;;;;;;;18.81;76.62;100590.19;5107271;28;20180;-66
2022/05/17 04:16:11;;;;;;;12.38;11.65;;;;;;;18.98;76.48;100603.50;5110313;27;20044;-66
2022/05/17 04:18:38;;;;;;;14.45;13.10;;;;;;;18.94;76.35;100603.31;5105332;28;20052;-66
2022/05/17 04:21:06;;;;;;;13.70;12.70;;;;;;;19.02;76.17;100605.31;5106492;27;20078;-66
2022/05/17 04:23:33;;;;;;;13.82;12.75;;;;;;;18.93;76.10;100607.31;5111451;27;20239;-66
2022/05/17 04:26:00;;;;;;;12.73;11.85;;;;;;;19.03;75.93;100615.44;5103583;28;20051;-65
2022/05/17 04:28:27;;;;;;;13.23;11.98;;;;;;;18.95;76.11;100599.31;5110406;28;20078;-66
2022/05/17 04:30:54;;;;;;;14.20;12.95;;;;;;;19.04;75.89;100602.97;5110677;28;20205;-65
2022/05/17 04:33:21;;;;;;;13.38;12.38;;;;;;;19.08;75.75;100591.81;5112238;27;20122;-66
2022/05/17 04:35:48;;;;;;;12.55;11.55;;;;;;;18.78;75.96;100582.38;5109564;28;20578;-66
2022/05/17 04:38:15;;;;;;;24.27;10.45;;;;;;;18.93;75.81;100612.97;5111475;28;20151;-66
2022/05/17 04:40:42;;;;;;;11.57;10.45;;;;;;;19.00;75.70;100604.78;5112669;28;20075;-66
2022/05/17 04:43:10;;;;;;;12.18;11.25;;;;;;;19.03;75.44;100597.63;5099270;27;20052;-66
2022/05/17 04:45:37;;;;;;;10.32;9.45;;;;;;;19.02;75.39;100610.97;5110208;28;20039;-65
2022/05/17 04:48:05;;;;;;;10.93;10.00;;;;;;;18.96;75.41;100617.13;5112576;28;20051;-66
2022/05/17 04:50:32;;;;;;;10.38;9.63;;;;;;;19.00;75.34;100624.59;5107092;27;20050;-66
2022/05/17 04:52:59;;;;;;;20.85;10.05;;;;;;;19.00;75.10;100618.94;5111805;28;20079;-65
2022/05/17 04:55:26;;;;;;;12.02;10.40;;;;;;;18.89;75.21;100609.16;5111859;27;20092;-65
2022/05/17 04:57:53;;;;;;;10.68;10.07;;;;;;;18.92;75.26;100622.63;5105354;28;20039;-65
2022/05/17 05:00:23;;;;;;;10.32;9.63;;;;;;;18.95;75.16;100627.63;5104316;28;20134;-65
2022/05/17 05:02:50;;;;;;;9.23;8.38;;;;;;;18.77;75.60;100617.47;5112747;27;20082;-66
2022/05/17 05:05:18;;;;;;;9.00;8.50;;;;;;;18.87;75.41;100632.13;5112953;27;20079;-66
2022/05/17 05:07:45;;;;;;;10.13;9.32;;;;;;;18.94;75.51;100642.94;5110460;28;20525;-65
2022/05/17 05:10:13;;;;;;;10.98;9.80;;;;;;;18.94;75.15;100626.78;5105921;28;20126;-66
2022/05/17 05:12:40;;;;;;;10.35;9.27;;;;;;;18.97;74.90;100624.44;5103697;27;20138;-64
2022/05/17 05:15:07;;;;;;;9.77;8.93;;;;;;;18.98;75.11;100624.13;5107606;28;20130;-66
2022/05/17 05:17:36;;;;;;;9.05;8.55;;;;;;;19.03;74.78;100635.25;5107878;28;20516;-65
2022/05/17 05:20:06;;;;;;;9.27;8.48;;;;;;;19.15;74.40;100645.91;5105548;28;20044;-65
2022/05/17 05:22:34;;;;;;;7.57;7.18;;;;;;;19.14;74.60;100636.59;5107226;28;20122;-66
2022/05/17 05:25:06;;;;;;;8.90;8.02;;;;;;;19.08;74.46;100632.25;5105805;28;20452;-64
2022/05/17 05:27:34;;;;;;;13.48;9.90;;;;;;;19.22;73.99;100642.56;5137102;27;20035;-65
2022/05/17 05:30:04;;;;;;;9.00;8.40;;;;;;;19.33;73.95;100655.19;5110181;28;20511;-64
2022/05/17 05:32:31;;;;;;;9.32;8.57;;;;;;;19.11;73.95;100630.72;5110596;27;20055;-66
2022/05/17 05:34:58;;;;;;;9.73;8.32;;;;;;;19.16;73.69;100639.91;5110736;28;20123;-65
2022/05/17 05:37:25;;;;;;;10.57;9.70;;;;;;;19.14;73.56;100644.22;5108544;27;20050;-65
2022/05/17 05:39:52;;;;;;;10.48;9.57;;;;;;;19.23;73.50;100653.53;5107309;28;20135;-65
2022/05/17 05:42:19;;;;;;;18.30;9.10;;;;;;;19.19;73.13;100644.06;5144732;27;20054;-65
2022/05/17 05:44:45;;;;;;;11.20;10.57;;;;;;;19.29;73.32;100668.34;5114380;27;20046;-68
2022/05/17 05:47:12;;;;;;;9.60;8.95;;;;;;;19.24;73.13;100669.34;5108307;28;20130;-65
2022/05/17 05:49:39;;;;;;;12.48;9.18;;;;;;;19.32;72.97;100676.19;5108986;28;20143;-66
2022/05/17 05:52:06;;;;;;;9.93;9.27;;;;;;;19.29;72.95;100672.00;5110614;28;20086;-66
2022/05/17 05:54:33;;;;;;;8.30;7.80;;;;;;;19.24;72.85;100675.00;5109935;28;20075;-67
2022/05/17 05:57:01;;;;;;;10.60;9.50;;;;;;;19.30;72.66;100672.84;5106532;28;20147;-66
2022/05/17 05:59:29;;;;;;;8.90;8.30;;;;;;;19.52;72.47;100700.09;5106821;28;20163;-65
2022/05/17 06:01:57;;;;;;;13.45;12.30;;;;;;;19.55;72.59;100700.25;5107072;28;20136;-66
2022/05/17 06:04:27;;;;;;;12.88;9.13;;;;;;;19.36;72.48;100663.84;5144662;27;20116;-67
2022/05/17 06:06:56;;;;;;;9.00;8.30;;;;;;;19.45;72.45;100692.09;5111837;28;20044;-66
2022/05/17 06:09:24;;;;;;;8.65;7.85;;;;;;;19.41;72.46;100691.97;5110443;28;20082;-66
2022/05/17 06:11:52;;;;;;;15.68;10.07;;;;;;;19.24;72.39;100669.34;5108558;28;20114;-69
2022/05/17 06:14:22;;;;;;;9.73;8.73;;;;;;;19.37;72.16;100688.13;5110937;28;20135;-66
2022/05/17 06:16:51;;;;;;;9.38;8.88;;;;;;;19.37;72.42;100690.97;5103294;28;20122;-65
2022/05/17 06:19:19;;;;;;;9.98;8.95;;;;;;;19.26;72.27;100683.19;5109765;28;20043;-67
2022/05/17 06:21:46;;;;;;;9.50;8.75;;;;;;;19.38;72.38;100711.63;5099738;28;20094;-66
2022/05/17 06:24:13;;;;;;;12.85;9.60;;;;;;;19.28;71.83;100681.69;5103124;28;20075;-66
2022/05/17 06:26:40;;;;;;;9.20;8.40;;;;;;;19.46;72.11;100722.13;5109920;28;20135;-66
2022/05/17 06:29:07;;;;;;;13.18;9.52;;;;;;;19.27;72.44;100713.16;5108233;28;20040;-66
2022/05/17 06:31:34;;;;;;;10.45;9.55;;;;;;;19.32;72.08;100716.66;5101520;28;20123;-66
2022/05/17 06:34:01;;;;;;;11.25;9.32;;;;;;;19.25;72.39;100695.66;5111353;28;20130;-66
2022/05/17 06:36:28;;;;;;;10.50;9.65;;;;;;;19.26;72.33;100723.66;5104478;28;20167;-66
2022/05/17 06:39:15;;;;;;;10.13;9.32;;;;;;;19.03;72.37;100691.84;5109692;28;20058;-66
2022/05/17 06:41:43;;;;;;;10.93;9.25;;;;;;;19.27;72.17;100724.47;5105028;28;20108;-65
2022/05/17 06:44:10;;;;;;;12.65;11.43;;;;;;;19.14;72.33;100710.19;5103550;28;20052;-65
2022/05/17 06:46:37;;;;;;;16.35;10.02;;;;;;;19.21;72.28;100725.81;5108887;28;20131;-66
2022/05/17 06:49:04;;;;;;;9.95;9.05;;;;;;;19.20;72.45;100729.81;5107756;28;20497;-67
2022/05/17 06:51:34;;;;;;;12.95;9.35;;;;;;;19.13;72.42;100738.81;5107852;28;20082;-66
2022/05/17 06:54:00;;;;;;;12.60;11.18;;;;;;;19.06;72.83;100725.16;5108365;28;20043;-67
2022/05/17 06:56:27;;;;;;;13.82;12.55;;;;;;;18.84;73.09;100723.34;5108401;28;20134;-67
2022/05/17 06:58:55;;;;;;;12.60;11.45;;;;;;;18.83;73.38;100737.81;5110409;28;20047;-67
2022/05/17 07:01:22;;;;;;;15.65;12.95;;;;;;;18.70;73.52;100729.13;5105632;28;20040;-66
2022/05/17 07:03:51;;;;;;;20.08;13.35;;;;;;;18.81;73.74;100740.16;5103114;28;20048;-66
2022/05/17 07:06:18;;;;;;;15.43;14.00;;;;;;;18.72;73.63;100725.97;5106422;27;20142;-66
2022/05/17 07:08:45;;;;;;;14.32;12.65;;;;;;;18.87;73.94;100750.97;5107161;28;20562;-66
2022/05/17 07:13:58;;;;;;;10.93;9.90;;;;;;;18.80;73.54;100732.81;5115580;28;20135;-66
2022/05/17 07:16:25;;;;;;;10.40;9.55;;;;;;;18.92;73.37;100719.66;5107455;28;20127;-65
2022/05/17 07:18:53;;;;;;;8.95;8.23;;;;;;;19.18;73.52;100764.97;5102927;28;20105;-67
2022/05/17 07:21:40;;;;;;;15.57;10.60;;;;;;;19.04;73.53;100743.63;5111665;28;20511;-67
2022/05/17 07:24:07;;;;;;;11.27;10.27;;;;;;;19.15;73.09;100756.31;5111608;28;20126;-66
2022/05/17 07:26:33;;;;;;;10.07;9.15;;;;;;;19.05;73.13;100760.31;5098202;28;20135;-66
2022/05/17 07:29:00;;;;;;;14.18;10.75;;;;;;;19.24;72.94;100778.94;5095386;28;20121;-66
2022/05/17 07:31:27;;;;;;;11.07;9.90;;;;;;;19.20;72.62;100786.44;5095569;28;20087;-66
2022/05/17 07:33:54;;;;;;;10.48;9.82;;;;;;;19.25;72.44;100777.75;5104010;28;20416;-66
2022/05/17 07:36:21;;;;;;;9.88;8.88;;;;;;;19.01;72.33;100749.94;5111733;28;20131;-67
2022/05/17 07:38:48;;;;;;;10.20;9.52;;;;;;;19.04;72.05;100772.78;5115569;28;20128;-67
2022/05/17 07:41:15;;;;;;;10.57;9.98;;;;;;;19.07;71.92;100779.75;5115468;28;20083;-66
2022/05/17 07:43:42;;;;;;;9.00;8.40;;;;;;;18.77;71.75;100750.44;5104425;28;20082;-66
2022/05/17 07:46:09;;;;;;;11.43;10.73;;;;;;;18.96;71.49;100795.41;5115454;28;20082;-66
2022/05/17 07:48:36;;;;;;;10.48;9.68;;;;;;;19.08;71.46;100778.63;5110173;28;20119;-66
2022/05/17 07:51:02;;;;;;;10.88;10.13;;;;;;;19.03;70.92;100759.78;5108386;28;20130;-66
2022/05/17 07:53:31;;;;;;;11.00;9.82;;;;;;;19.15;71.01;100779.78;5114185;28;20138;-66
2022/05/17 07:55:57;;;;;;;13.02;10.88;;;;;;;19.17;70.81;100774.59;5116486;28;20073;-66
2022/05/17 07:58:25;;;;;;;9.80;8.70;;;;;;;19.11;70.64;100758.97;5115307;28;20075;-67
2022/05/17 08:00:53;;;;;;;9.30;8.75;;;;;;;19.14;70.36;100755.47;5113765;28;20518;-66
2022/05/17 08:03:21;;;;;;;9.80;9.15;;;;;;;19.05;70.46;100765.97;5113995;28;20054;-67
2022/05/17 08:05:51;;;;;;;13.30;12.07;;;;;;;18.96;70.28;100736.81;5111172;28;20108;-67
2022/05/17 08:08:18;;;;;;;9.30;8.70;;;;;;;19.20;70.46;100792.09;5108595;28;20123;-67
2022/05/17 08:10:44;;;;;;;11.50;8.95;;;;;;;19.16;71.10;100787.09;5110093;28;20081;-67
2022/05/17 08:13:13;;;;;;;8.85;8.25;;;;;;;19.19;70.24;100768.63;5109132;28;20126;-67
2022/05/17 08:15:40;;;;;;;11.88;11.07;;;;;;;19.33;69.97;100791.94;5105282;28;20570;-67
2022/05/17 08:18:07;;;;;;;8.80;8.25;;;;;;;19.55;69.84;100799.38;5108470;28;20505;-68
2022/05/17 08:20:35;;;;;;;9.75;8.77;;;;;;;19.50;69.62;100787.41;5112798;28;20098;-68
2022/05/17 08:23:02;;;;;;;9.48;8.88;;;;;;;19.51;69.68;100780.59;5111615;28;20051;-66
2022/05/17 08:28:34;;;;;;;9.93;9.27;;;;;;;19.55;69.60;100792.91;5087855;28;20236;-66
2022/05/17 08:31:01;;;;;;;8.75;8.25;;;;;;;19.69;69.40;100781.41;5085092;28;20502;-67
2022/05/17 08:33:30;;;;;;;9.88;8.32;;;;;;;19.82;68.78;100792.53;5096490;28;20066;-66
2022/05/17 08:36:04;;;;;;;8.90;8.18;;;;;;;20.13;68.45;100797.13;5112198;28;20142;-67
2022/05/17 08:38:33;;;;;;;8.82;8.23;;;;;;;20.28;68.77;100785.22;5110688;28;20074;-68
2022/05/17 08:41:31;;;;;;;9.18;8.45;;;;;;;20.17;68.09;100795.28;5106255;28;20050;-67
2022/05/17 08:44:02;;;;;;;12.48;8.32;;;;;;;20.22;67.89;100800.75;5108540;28;20139;-66
2022/05/17 08:47:00;;;;;;;9.95;9.00;;;;;;;20.36;67.93;100804.19;5110929;28;20142;-67
2022/05/17 08:49:58;;;;;;;11.85;11.18;;;;;;;20.43;67.52;100800.81;5105062;28;20413;-67
2022/05/17 08:52:27;;;;;;;8.05;7.43;;;;;;;20.38;67.32;100801.03;5107804;28;20096;-67
2022/05/17 08:55:03;;;;;;;8.40;7.78;;;;;;;20.35;67.33;100805.38;5110485;28;20469;-67
2022/05/17 08:57:40;;;;;;;8.48;7.97;;;;;;;20.26;66.70;100776.22;5107432;28;20502;-67
2022/05/17 09:00:08;;;;;;;11.95;10.68;;;;;;;20.53;66.94;100817.50;5110805;27;20086;-67
2022/05/17 09:02:43;;;;;;;11.65;10.60;;;;;;;20.56;67.02;100811.13;5109392;28;20600;-67
2022/05/17 09:05:36;;;;;;;9.18;8.52;;;;;;;20.47;66.91;100790.44;5106998;28;20047;-66
2022/05/17 09:08:04;;;;;;;9.38;8.57;;;;;;;20.56;67.01;100816.81;5108696;28;20048;-67
2022/05/17 09:10:36;;;;;;;9.98;9.02;;;;;;;20.55;66.84;100795.31;5110868;28;20077;-68
2022/05/17 09:13:15;;;;;;;8.77;8.23;;;;;;;20.72;66.67;100804.88;5113971;27;20556;-68
2022/05/17 09:15:44;;;;;;;8.60;7.93;;;;;;;20.19;66.81;100713.53;5103173;27;20134;-67
2022/05/17 09:18:16;;;;;;;8.27;7.78;;;;;;;20.61;66.74;100798.75;5114395;27;20047;-67
2022/05/17 09:20:43;;;;;;;7.97;7.55;;;;;;;20.68;66.71;100813.22;5106532;28;20075;-67
2022/05/17 09:23:10;;;;;;;8.85;8.15;;;;;;;20.51;66.37;100767.94;5112157;28;20059;-66
2022/05/17 09:25:46;;;;;;;9.77;9.00;;;;;;;20.72;66.27;100807.72;5109329;28;20134;-67
2022/05/17 09:28:44;;;;;;;9.68;8.20;;;;;;;20.78;66.13;100812.84;5107353;28;20051;-67
2022/05/17 09:31:25;;;;;;;9.23;8.45;;;;;;;20.91;65.95;100815.78;5107304;28;20089;-67
2022/05/17 09:33:53;;;;;;;13.95;8.05;;;;;;;20.99;65.70;100786.47;5110336;28;20043;-67
2022/05/17 09:36:28;;;;;;;9.80;9.25;;;;;;;21.13;65.48;100800.41;5109317;28;20561;-66
2022/05/17 09:38:58;;;;;;;9.70;8.43;;;;;;;21.22;65.55;100789.81;5101236;28;20050;-67
2022/05/17 09:41:34;;;;;;;10.32;9.40;;;;;;;21.42;65.31;100808.06;5106821;28;20142;-67
2022/05/17 09:44:25;;;;;;;10.00;9.20;;;;;;;21.50;64.64;100805.16;5108935;27;20058;-67
2022/05/17 09:46:59;;;;;;;9.55;8.68;;;;;;;21.52;64.67;100802.78;5122908;27;20079;-67
2022/05/17 09:52:59;;;;;;;9.18;8.55;;;;;;;21.60;63.79;100797.34;5082437;28;20075;-66
2022/05/17 09:55:30;;;;;;;9.13;8.52;;;;;;;21.79;63.29;100799.69;5087358;28;20170;-65
2022/05/17 09:58:00;;;;;;;10.00;8.25;;;;;;;22.13;63.03;100809.84;5097451;28;20470;-66
2022/05/17 10:00:33;;;;;;;10.07;9.32;;;;;;;22.36;62.68;100813.09;5109045;28;20126;-67
2022/05/17 10:03:06;;;;;;;8.60;8.00;;;;;;;22.44;62.12;100804.44;5108552;28;20067;-68
2022/05/17 10:05:45;;;;;;;10.75;10.13;;;;;;;22.44;62.36;100807.28;5108600;28;20047;-66
2022/05/17 10:08:15;;;;;;;9.15;8.55;;;;;;;22.53;62.05;100817.72;5106925;28;20161;-66
2022/05/17 10:11:06;;;;;;;9.38;8.77;;;;;;;22.42;61.35;100812.50;5109350;28;20074;-67
2022/05/17 10:14:00;;;;;;;9.77;8.82;;;;;;;22.38;60.90;100810.72;5096879;28;20132;-66
2022/05/17 10:16:36;;;;;;;9.18;8.10;;;;;;;22.73;60.19;100822.47;5106103;28;20147;-66
2022/05/17 10:19:19;;;;;;;9.27;8.68;;;;;;;22.78;59.54;100813.69;5105391;28;20117;-67
2022/05/17 10:21:54;;;;;;;10.02;9.10;;;;;;;22.87;59.23;100827.78;5106343;28;20043;-66
2022/05/17 10:24:27;;;;;;;9.60;8.77;;;;;;;22.91;58.91;100823.88;5105851;28;20109;-65
2022/05/17 10:27:11;;;;;;;9.45;8.85;;;;;;;22.91;58.65;100821.03;5099613;28;20187;-66
2022/05/17 10:30:11;;;;;;;9.15;8.43;;;;;;;22.97;58.61;100829.34;5106865;28;20043;-68
2022/05/17 10:32:54;;;;;;;9.05;8.38;;;;;;;22.85;58.52;100819.63;5089264;28;20071;-66
2022/05/17 10:35:50;;;;;;;9.25;8.75;;;;;;;22.84;58.35;100817.16;5110712;28;20574;-67
2022/05/17 10:38:21;;;;;;;10.73;10.05;;;;;;;22.66;58.42;100823.06;5114223;28;20130;-66
2022/05/17 10:40:51;;;;;;;11.23;10.43;;;;;;;22.63;58.64;100822.94;5112859;28;20043;-67
2022/05/17 10:43:31;;;;;;;7.32;6.90;;;;;;;22.15;59.04;100787.56;5110706;27;20046;-67
2022/05/17 10:46:06;;;;;;;9.00;8.27;;;;;;;22.12;58.85;100796.78;5111869;28;20055;-69
2022/05/17 10:48:57;;;;;;;12.05;9.60;;;;;;;22.14;59.33;100834.25;5109498;28;20510;-67
2022/05/17 10:51:42;;;;;;;11.80;10.63;;;;;;;22.11;59.43;100841.47;5106642;27;20131;-67
2022/05/17 10:54:28;;;;;;;10.13;8.60;;;;;;;21.84;60.43;100839.25;5113096;27;20126;-67
2022/05/17 10:57:32;;;;;;;9.70;8.88;;;;;;;21.86;60.48;100846.25;5109746;27;20058;-68
2022/05/17 11:00:14;;;;;;;14.45;7.97;;;;;;;21.82;60.62;100853.84;5111296;28;20135;-66
2022/05/17 11:02:50;;;;;;;8.65;8.05;;;;;;;21.65;61.38;100845.47;5111814;27;20124;-66
2022/05/17 11:05:22;;;;;;;9.27;8.45;;;;;;;21.53;61.85;100858.41;5105650;28;20039;-67
2022/05/17 11:08:05;;;;;;;9.48;8.48;;;;;;;21.43;61.98;100864.53;5105196;27;20066;-68
2022/05/17 11:10:56;;;;;;;10.00;9.10;;;;;;;21.16;62.86;100853.69;5108979;27;20263;-67
2022/05/17 11:13:47;;;;;;;11.50;10.73;;;;;;;20.91;63.60;100862.03;5110437;28;20134;-67
2022/05/17 11:16:40;;;;;;;14.50;13.57;;;;;;;20.58;64.80;100865.56;5112663;27;20107;-67
2022/05/17 11:19:37;;;;;;;13.52;12.32;;;;;;;20.41;65.08;100848.56;5107757;27;20131;-67
2022/05/17 11:22:21;;;;;;;10.23;9.52;;;;;;;20.49;65.59;100873.22;5099970;28;20047;-68
2022/05/17 11:25:00;;;;;;;10.18;9.45;;;;;;;20.44;65.57;100872.56;5138272;27;20079;-68
2022/05/17 11:27:39;;;;;;;10.48;9.68;;;;;;;20.64;65.37;100885.22;5108257;27;20062;-67
2022/05/17 11:30:22;;;;;;;10.35;9.15;;;;;;;20.71;65.17;100871.31;5119054;27;20146;-67
2022/05/17 11:33:23;;;;;;;13.68;12.45;;;;;;;20.74;65.29;100877.13;5106505;27;20048;-66
2022/05/17 11:35:53;;;;;;;13.25;12.25;;;;;;;20.71;65.36;100891.19;5112159;28;20044;-68
2022/05/17 11:38:37;;;;;;;16.33;14.93;;;;;;;20.54;66.02;100889.25;5113848;28;20557;-68
2022/05/17 11:41:19;;;;;;;14.40;13.40;;;;;;;20.29;67.01;100896.66;5112093;28;20120;-68
2022/05/17 11:43:51;;;;;;;15.07;13.77;;;;;;;20.12;67.63;100891.84;5107896;28;20047;-67